Time,TemperatureF,DewpointF,PressureIn,WindDirection,WindDirectionDegrees,WindSpeedMPH,WindSpeedGustMPH,Humidity,HourlyPrecipIn,Conditions,Clouds,dailyrainin,SoftwareType,DateUTC
2013-03-24 00:00:00,27.6,19.1,30.05,NE,45,0.0,0.0,70,0.00,,---,5.07,VWS V14.01,2013-03-24 04:00:00,
2013-03-24 00:02:00,27.6,19.1,30.05,NE,45,0.0,0.0,70,0.00,,---,0.00,VWS V14.01,2013-03-24 04:02:00,
2013-03-24 00:03:00,27.6,19.1,30.05,NE,45,0.0,0.0,70,0.00,,---,0.00,VWS V14.01,2013-03-24 04:03:00,
2013-03-24 00:08:00,27.6,19.1,30.05,NE,45,0.0,0.0,70,0.00,,---,0.00,VWS V14.01,2013-03-24 04:08:00,
2013-03-24 00:13:00,27.5,19.0,30.04,NE,45,0.0,0.0,70,0.00,,---,0.00,VWS V14.01,2013-03-24 04:13:00,
2013-03-24 00:18:00,27.3,18.8,30.04,NE,45,0.0,0.0,70,0.00,,---,0.00,VWS V14.01,2013-03-24 04:18:00,
2013-03-24 00:23:00,27.3,19.1,30.03,NE,45,0.0,0.0,71,0.00,,---,0.00,VWS V14.01,2013-03-24 04:23:00,
2013-03-24 00:29:00,27.1,19.0,30.03,NE,45,0.0,0.0,71,0.00,,---,0.00,VWS V14.01,2013-03-24 04:29:00,
2013-03-24 00:34:00,27.1,19.0,30.03,NE,45,0.0,0.0,71,0.00,,---,0.00,VWS V14.01,2013-03-24 04:34:00,
2013-03-24 00:39:00,26.9,18.8,30.02,NE,45,0.0,0.0,71,0.00,,---,0.00,VWS V14.01,2013-03-24 04:39:00,
2013-03-24 00:45:00,26.7,18.6,30.02,NE,45,0.0,0.0,71,0.00,,---,0.00,VWS V14.01,2013-03-24 04:45:00,
2013-03-24 00:50:00,26.6,18.5,30.02,NE,45,0.0,0.0,71,0.00,,---,0.00,VWS V14.01,2013-03-24 04:50:00,
2013-03-24 00:55:00,26.4,18.3,30.02,NE,45,0.0,0.0,71,0.00,,---,0.00,VWS V14.01,2013-03-24 04:55:00,
2013-03-24 01:00:00,26.4,18.6,30.01,NE,45,0.0,0.0,72,0.00,,---,0.00,VWS V14.01,2013-03-24 05:00:00,
2013-03-24 01:05:00,26.2,18.4,30.01,NE,45,0.0,0.0,72,0.00,,---,0.00,VWS V14.01,2013-03-24 05:05:00,
2013-03-24 01:10:00,26.2,18.4,30.01,NE,45,0.0,0.0,72,0.00,,---,0.00,VWS V14.01,2013-03-24 05:10:00,
2013-03-24 01:15:00,25.8,18.0,30.01,NE,45,0.0,0.0,72,0.00,,---,0.00,VWS V14.01,2013-03-24 05:15:00,
2013-03-24 01:20:00,25.8,18.0,30.01,NE,45,0.0,0.0,72,0.00,,---,0.00,VWS V14.01,2013-03-24 05:20:00,
2013-03-24 01:25:00,25.7,17.9,30.01,NE,45,0.0,0.0,72,0.00,,---,0.00,VWS V14.01,2013-03-24 05:25:00,
2013-03-24 01:30:00,25.7,17.9,30.01,NE,45,0.0,0.0,72,0.00,,---,0.00,VWS V14.01,2013-03-24 05:30:00,
2013-03-24 01:35:00,25.7,17.9,30.00,NE,45,0.0,0.0,72,0.00,,---,0.00,VWS V14.01,2013-03-24 05:35:00,
2013-03-24 01:40:00,25.7,17.9,30.01,NE,45,0.0,0.0,72,0.00,,---,0.00,VWS V14.01,2013-03-24 05:40:00,
2013-03-24 01:45:00,25.5,17.8,30.01,NE,45,0.0,0.0,72,0.00,,---,0.00,VWS V14.01,2013-03-24 05:45:00,
2013-03-24 01:50:00,25.5,18.1,30.01,NE,45,0.0,0.0,73,0.00,,---,0.00,VWS V14.01,2013-03-24 05:50:00,
2013-03-24 01:55:00,25.5,18.1,30.01,NE,45,0.0,0.0,73,0.00,,---,0.00,VWS V14.01,2013-03-24 05:55:00,
2013-03-24 02:00:00,25.5,18.1,30.01,NE,45,0.0,0.0,73,0.00,,---,0.00,VWS V14.01,2013-03-24 06:00:00,
2013-03-24 02:05:00,25.5,18.1,30.01,NE,45,0.0,0.0,73,0.00,,---,0.00,VWS V14.01,2013-03-24 06:05:00,
2013-03-24 02:10:00,25.1,17.7,30.01,NE,45,0.0,0.0,73,0.00,,---,0.00,VWS V14.01,2013-03-24 06:10:00,
2013-03-24 02:15:00,25.1,17.7,30.00,NE,45,0.0,0.0,73,0.00,,---,0.00,VWS V14.01,2013-03-24 06:15:00,
2013-03-24 02:20:00,24.9,17.5,30.01,NE,45,0.0,0.0,73,0.00,,---,0.00,VWS V14.01,2013-03-24 06:20:00,
2013-03-24 02:25:00,24.9,17.8,30.01,NE,45,0.0,0.0,74,0.00,,---,0.00,VWS V14.01,2013-03-24 06:25:00,
2013-03-24 02:30:00,25.1,18.0,30.01,NE,45,0.0,0.0,74,0.00,,---,0.00,VWS V14.01,2013-03-24 06:30:00,
2013-03-24 02:35:00,25.1,18.0,30.01,NE,45,0.0,0.0,74,0.00,,---,0.00,VWS V14.01,2013-03-24 06:35:00,
2013-03-24 02:40:00,25.3,18.2,30.01,NE,45,0.0,0.0,74,0.00,,---,0.00,VWS V14.01,2013-03-24 06:40:00,
2013-03-24 02:45:00,25.3,18.2,30.01,NE,45,0.0,0.0,74,0.00,,---,0.00,VWS V14.01,2013-03-24 06:45:00,
2013-03-24 02:50:00,25.3,18.2,30.00,NE,45,0.0,0.0,74,0.00,,---,0.00,VWS V14.01,2013-03-24 06:50:00,
2013-03-24 02:55:00,25.3,18.2,30.00,NE,45,0.0,0.0,74,0.00,,---,0.00,VWS V14.01,2013-03-24 06:55:00,
2013-03-24 03:01:00,25.3,18.2,30.00,NE,45,0.0,0.0,74,0.00,,---,0.00,VWS V14.01,2013-03-24 07:01:00,
2013-03-24 03:06:00,24.9,17.8,30.00,NE,45,0.0,0.0,74,0.00,,---,0.00,VWS V14.01,2013-03-24 07:06:00,
2013-03-24 03:11:00,24.9,17.8,30.00,NE,45,0.0,0.0,74,0.00,,---,0.00,VWS V14.01,2013-03-24 07:11:00,
2013-03-24 03:16:00,24.6,17.5,30.00,NE,45,0.0,0.0,74,0.00,,---,0.00,VWS V14.01,2013-03-24 07:16:00,
2013-03-24 03:21:00,24.6,17.5,30.00,NE,45,0.0,0.0,74,0.00,,---,0.00,VWS V14.01,2013-03-24 07:21:00,
2013-03-24 03:26:00,24.6,17.5,30.01,NE,45,0.0,0.0,74,0.00,,---,0.00,VWS V14.01,2013-03-24 07:26:00,
2013-03-24 03:32:00,24.6,17.8,30.01,NE,45,0.0,0.0,75,0.00,,---,0.00,VWS V14.01,2013-03-24 07:32:00,
2013-03-24 03:37:00,24.4,17.6,30.01,NE,45,0.0,0.0,75,0.00,,---,0.00,VWS V14.01,2013-03-24 07:37:00,
2013-03-24 03:42:00,24.4,17.6,30.01,NE,45,0.0,0.0,75,0.00,,---,0.00,VWS V14.01,2013-03-24 07:42:00,
2013-03-24 03:47:00,24.0,17.2,30.00,NE,45,0.0,0.0,75,0.00,,---,0.00,VWS V14.01,2013-03-24 07:47:00,
2013-03-24 03:52:00,24.0,17.2,30.01,NE,45,0.0,0.0,75,0.00,,---,0.00,VWS V14.01,2013-03-24 07:52:00,
2013-03-24 03:57:00,23.9,17.1,30.01,NE,45,0.0,0.0,75,0.00,,---,0.00,VWS V14.01,2013-03-24 07:57:00,
2013-03-24 04:02:00,23.9,17.1,30.01,NE,45,0.0,0.0,75,0.00,,---,0.00,VWS V14.01,2013-03-24 08:02:00,
2013-03-24 04:07:00,23.7,17.0,30.01,NE,45,0.0,0.0,75,0.00,,---,0.00,VWS V14.01,2013-03-24 08:07:00,
2013-03-24 04:12:00,23.7,17.0,30.01,NE,45,0.0,0.0,75,0.00,,---,0.00,VWS V14.01,2013-03-24 08:12:00,
2013-03-24 04:17:00,23.7,17.0,30.01,NE,45,0.0,0.0,75,0.00,,---,0.00,VWS V14.01,2013-03-24 08:17:00,
2013-03-24 04:22:00,23.5,16.8,30.00,NE,45,0.0,0.0,75,0.00,,---,0.00,VWS V14.01,2013-03-24 08:22:00,
2013-03-24 04:27:00,23.5,16.8,30.00,NE,45,0.0,0.0,75,0.00,,---,0.00,VWS V14.01,2013-03-24 08:27:00,
2013-03-24 04:32:00,23.5,16.8,30.00,NE,45,0.0,0.0,75,0.00,,---,0.00,VWS V14.01,2013-03-24 08:32:00,
2013-03-24 04:37:00,23.5,16.8,30.00,NE,45,0.0,0.0,75,0.00,,---,0.00,VWS V14.01,2013-03-24 08:37:00,
2013-03-24 04:42:00,23.5,16.8,30.01,NE,45,0.0,0.0,75,0.00,,---,0.00,VWS V14.01,2013-03-24 08:42:00,
2013-03-24 04:47:00,23.3,16.6,30.00,NE,45,0.0,0.0,75,0.00,,---,0.00,VWS V14.01,2013-03-24 08:47:00,
2013-03-24 04:52:00,23.1,16.7,30.00,NE,45,0.0,0.0,76,0.00,,---,0.00,VWS V14.01,2013-03-24 08:52:00,
2013-03-24 04:57:00,23.1,16.7,30.00,NE,45,0.0,0.0,76,0.00,,---,0.00,VWS V14.01,2013-03-24 08:57:00,
2013-03-24 05:02:00,23.1,16.7,30.00,NE,45,0.0,0.0,76,0.00,,---,0.00,VWS V14.01,2013-03-24 09:02:00,
2013-03-24 05:07:00,23.0,16.6,30.00,NE,45,0.0,0.0,76,0.00,,---,0.00,VWS V14.01,2013-03-24 09:07:00,
2013-03-24 05:12:00,23.0,16.6,30.00,NE,45,0.0,0.0,76,0.00,,---,0.00,VWS V14.01,2013-03-24 09:12:00,
2013-03-24 05:17:00,23.0,16.6,30.01,NE,45,0.0,0.0,76,0.00,,---,0.00,VWS V14.01,2013-03-24 09:17:00,
2013-03-24 05:22:00,23.0,16.6,30.01,NE,45,0.0,0.0,76,0.00,,---,0.00,VWS V14.01,2013-03-24 09:22:00,
2013-03-24 05:27:00,23.1,16.7,30.00,NE,45,0.0,0.0,76,0.00,,---,0.00,VWS V14.01,2013-03-24 09:27:00,
2013-03-24 05:32:00,23.1,16.7,30.00,NE,45,0.0,0.0,76,0.00,,---,0.00,VWS V14.01,2013-03-24 09:32:00,
2013-03-24 05:37:00,23.1,16.7,30.00,NE,45,0.0,0.0,76,0.00,,---,0.00,VWS V14.01,2013-03-24 09:37:00,
2013-03-24 05:42:00,23.1,16.7,30.00,NE,45,0.0,0.0,76,0.00,,---,0.00,VWS V14.01,2013-03-24 09:42:00,
2013-03-24 05:47:00,23.1,16.7,30.00,NE,45,0.0,0.0,76,0.00,,---,0.00,VWS V14.01,2013-03-24 09:47:00,
2013-03-24 05:52:00,23.1,16.7,29.99,NE,45,0.0,0.0,76,0.00,,---,0.00,VWS V14.01,2013-03-24 09:52:00,
2013-03-24 05:57:00,23.3,16.9,29.99,NE,45,0.0,0.0,76,0.00,,---,0.00,VWS V14.01,2013-03-24 09:57:00,
2013-03-24 06:02:00,23.3,16.9,29.99,NE,45,0.0,0.0,76,0.00,,---,0.00,VWS V14.01,2013-03-24 10:02:00,
2013-03-24 06:11:00,23.5,17.1,29.99,NE,45,0.0,0.0,76,0.00,,---,5.07,VWS V14.01,2013-03-24 10:11:00,
2013-03-24 06:17:00,23.7,17.3,30.00,NE,45,0.0,0.0,76,0.00,,---,5.07,VWS V14.01,2013-03-24 10:17:00,
2013-03-24 06:22:00,23.9,17.8,30.00,NE,45,0.0,0.0,77,0.00,,---,5.07,VWS V14.01,2013-03-24 10:22:00,
2013-03-24 06:27:00,24.0,17.9,30.00,NE,45,0.0,0.0,77,0.00,,---,5.07,VWS V14.01,2013-03-24 10:27:00,
2013-03-24 06:32:00,24.4,18.2,30.00,NE,45,0.0,0.0,77,0.00,,---,5.07,VWS V14.01,2013-03-24 10:32:00,
2013-03-24 06:37:00,24.4,18.2,30.00,NE,45,0.0,0.0,77,0.00,,---,5.07,VWS V14.01,2013-03-24 10:37:00,
2013-03-24 06:42:00,24.6,18.4,30.00,NE,45,0.0,0.0,77,0.00,,---,5.07,VWS V14.01,2013-03-24 10:42:00,
2013-03-24 06:47:00,24.6,18.4,30.00,NE,45,0.0,0.0,77,0.00,,---,5.07,VWS V14.01,2013-03-24 10:47:00,
2013-03-24 06:53:00,24.9,18.7,30.00,NE,45,0.0,0.0,77,0.00,,---,5.07,VWS V14.01,2013-03-24 10:53:00,
2013-03-24 06:58:00,24.9,18.7,29.99,NE,45,0.0,0.0,77,0.00,,---,5.07,VWS V14.01,2013-03-24 10:58:00,
2013-03-24 07:03:00,24.9,18.7,30.00,NE,45,0.0,0.0,77,0.00,,---,5.07,VWS V14.01,2013-03-24 11:03:00,
2013-03-24 07:09:00,25.1,18.9,30.00,NE,45,0.0,0.0,77,0.00,,---,5.07,VWS V14.01,2013-03-24 11:09:00,
2013-03-24 07:14:00,25.3,19.1,30.00,NE,45,0.0,0.0,77,0.00,,---,5.07,VWS V14.01,2013-03-24 11:14:00,
2013-03-24 07:19:00,25.3,19.1,30.00,NE,45,0.0,0.0,77,0.00,,---,5.07,VWS V14.01,2013-03-24 11:19:00,
2013-03-24 07:24:00,25.5,19.3,30.00,NE,45,0.0,0.0,77,0.00,,---,5.07,VWS V14.01,2013-03-24 11:24:00,
2013-03-24 07:29:00,25.7,19.5,30.00,NE,45,0.0,0.0,77,0.00,,---,5.07,VWS V14.01,2013-03-24 11:29:00,
2013-03-24 07:34:00,25.7,19.5,30.01,NE,45,0.0,0.0,77,0.00,,---,5.07,VWS V14.01,2013-03-24 11:34:00,
2013-03-24 07:40:00,25.8,19.6,30.00,NE,45,0.0,0.0,77,0.00,,---,5.07,VWS V14.01,2013-03-24 11:40:00,
2013-03-24 07:45:00,26.0,19.8,30.00,NE,45,0.0,0.0,77,0.00,,---,5.07,VWS V14.01,2013-03-24 11:45:00,
2013-03-24 07:50:00,26.2,20.0,30.00,NE,45,0.0,0.0,77,0.00,,---,5.07,VWS V14.01,2013-03-24 11:50:00,
2013-03-24 07:55:00,26.2,20.0,30.00,NE,45,0.0,0.0,77,0.00,,---,5.07,VWS V14.01,2013-03-24 11:55:00,
2013-03-24 08:00:00,26.4,20.2,30.00,ENE,68,0.0,0.0,77,0.00,,---,5.07,VWS V14.01,2013-03-24 12:00:00,
2013-03-24 08:05:00,26.4,20.5,30.00,ENE,68,0.0,0.0,78,0.00,,---,5.07,VWS V14.01,2013-03-24 12:05:00,
2013-03-24 08:10:00,26.6,20.7,30.00,NE,45,0.0,0.0,78,0.00,,---,5.07,VWS V14.01,2013-03-24 12:10:00,
2013-03-24 08:15:00,26.7,20.8,30.00,ENE,68,0.0,0.0,78,0.00,,---,5.07,VWS V14.01,2013-03-24 12:15:00,
2013-03-24 08:20:00,27.1,21.5,30.00,ENE,68,0.8,0.8,79,0.00,,---,5.07,VWS V14.01,2013-03-24 12:20:00,
2013-03-24 08:25:00,27.1,21.5,29.99,ENE,68,0.0,0.0,79,0.00,,---,5.07,VWS V14.01,2013-03-24 12:25:00,
2013-03-24 08:30:00,27.3,21.7,29.99,NE,45,0.0,0.0,79,0.00,,---,5.07,VWS V14.01,2013-03-24 12:30:00,
2013-03-24 08:35:00,27.6,22.0,29.99,ENE,68,0.6,2.6,79,0.00,,---,5.07,VWS V14.01,2013-03-24 12:35:00,
2013-03-24 08:40:00,28.0,22.3,29.99,NNE,22,0.0,0.0,79,0.00,,---,5.07,VWS V14.01,2013-03-24 12:40:00,
2013-03-24 08:45:00,28.0,22.6,30.00,NE,45,0.0,0.0,80,0.00,,---,5.07,VWS V14.01,2013-03-24 12:45:00,
2013-03-24 08:50:00,28.2,22.8,30.00,ENE,68,2.2,2.2,80,0.00,,---,5.07,VWS V14.01,2013-03-24 12:50:00,
2013-03-24 08:55:00,28.5,23.1,29.99,NE,45,0.0,0.0,80,0.00,,---,5.07,VWS V14.01,2013-03-24 12:55:00,
2013-03-24 09:00:00,28.5,23.1,29.99,NE,45,1.1,1.1,80,0.00,,---,5.07,VWS V14.01,2013-03-24 13:00:00,
2013-03-24 09:05:00,28.7,23.3,29.98,NE,45,0.8,0.8,80,0.00,,---,5.07,VWS V14.01,2013-03-24 13:05:00,
2013-03-24 09:10:00,28.9,23.5,29.98,ENE,68,2.0,2.0,80,0.00,,---,5.07,VWS V14.01,2013-03-24 13:10:00,
2013-03-24 09:15:00,28.9,23.5,29.97,NE,45,2.9,2.9,80,0.00,,---,5.07,VWS V14.01,2013-03-24 13:15:00,
2013-03-24 09:20:00,29.1,23.7,29.97,NE,45,5.3,5.3,80,0.00,,---,5.07,VWS V14.01,2013-03-24 13:20:00,
2013-03-24 09:25:00,29.3,23.9,29.97,ENE,68,0.0,0.0,80,0.00,,---,5.07,VWS V14.01,2013-03-24 13:25:00,
2013-03-24 09:30:00,29.4,24.0,29.97,NE,45,0.0,0.0,80,0.00,,---,5.07,VWS V14.01,2013-03-24 13:30:00,
2013-03-24 09:35:00,29.4,23.7,29.97,NE,45,1.7,3.8,79,0.00,,---,5.07,VWS V14.01,2013-03-24 13:35:00,
2013-03-24 09:40:00,29.8,24.1,29.97,NE,45,2.6,2.6,79,0.00,,---,5.07,VWS V14.01,2013-03-24 13:40:00,
2013-03-24 09:45:00,30.0,24.3,29.97,ENE,68,7.8,7.8,79,0.00,,---,5.07,VWS V14.01,2013-03-24 13:45:00,
2013-03-24 09:50:00,30.0,24.3,29.97,NE,45,5.1,5.1,79,0.00,,---,5.07,VWS V14.01,2013-03-24 13:50:00,
2013-03-24 09:55:00,30.2,24.5,29.96,SE,135,0.0,0.0,79,0.00,,---,5.07,VWS V14.01,2013-03-24 13:55:00,
2013-03-24 10:00:00,30.3,24.3,29.97,ENE,68,8.5,8.5,78,0.00,,---,5.07,VWS V14.01,2013-03-24 14:00:00,
2013-03-24 10:05:00,30.7,24.7,29.97,ENE,68,5.1,7.1,78,0.00,,---,5.07,VWS V14.01,2013-03-24 14:05:00,
2013-03-24 10:10:00,30.7,24.7,29.97,East,90,2.2,2.2,78,0.00,,---,5.07,VWS V14.01,2013-03-24 14:10:00,
2013-03-24 10:15:00,30.9,24.9,29.97,ESE,112,0.0,0.0,78,0.00,,---,5.07,VWS V14.01,2013-03-24 14:15:00,
2013-03-24 10:20:00,31.2,25.1,29.97,NE,45,0.0,0.0,78,0.00,,---,5.07,VWS V14.01,2013-03-24 14:20:00,
2013-03-24 10:26:00,31.2,25.1,29.97,NE,45,2.6,7.1,78,0.00,,---,5.07,VWS V14.01,2013-03-24 14:26:00,
2013-03-24 10:31:00,31.4,25.0,29.98,NE,45,6.4,8.5,77,0.00,,---,5.07,VWS V14.01,2013-03-24 14:31:00,
2013-03-24 10:37:00,31.6,25.2,29.97,ENE,68,3.1,3.1,77,0.00,,---,5.07,VWS V14.01,2013-03-24 14:37:00,
2013-03-24 10:42:00,31.6,25.2,29.97,ENE,68,4.0,4.0,77,0.00,,---,5.07,VWS V14.01,2013-03-24 14:42:00,
2013-03-24 10:47:00,31.6,25.2,29.97,NE,45,3.8,3.8,77,0.00,,---,5.07,VWS V14.01,2013-03-24 14:47:00,
2013-03-24 10:52:00,31.6,25.2,29.96,ENE,68,6.7,6.7,77,0.00,,---,5.07,VWS V14.01,2013-03-24 14:52:00,
2013-03-24 10:58:00,31.8,25.4,29.96,ENE,68,0.8,6.7,77,0.00,,---,5.07,VWS V14.01,2013-03-24 14:58:00,
2013-03-24 11:03:00,31.8,25.4,29.96,NE,45,8.2,8.7,77,0.00,,---,5.07,VWS V14.01,2013-03-24 15:03:00,
2013-03-24 11:08:00,31.8,25.4,29.96,ENE,68,8.2,8.2,77,0.00,,---,5.07,VWS V14.01,2013-03-24 15:08:00,
2013-03-24 11:13:00,31.8,25.4,29.95,NE,45,8.2,8.2,77,0.00,,---,5.07,VWS V14.01,2013-03-24 15:13:00,
2013-03-24 11:18:00,31.8,25.4,29.95,East,90,6.9,6.9,77,0.00,,---,5.07,VWS V14.01,2013-03-24 15:18:00,
2013-03-24 11:23:00,32.1,25.7,29.95,NNE,22,0.0,0.0,77,0.00,,---,5.07,VWS V14.01,2013-03-24 15:23:00,
2013-03-24 11:28:00,32.1,25.7,29.95,ENE,68,3.3,7.3,77,0.00,,---,5.07,VWS V14.01,2013-03-24 15:28:00,
2013-03-24 11:33:00,32.3,25.9,29.95,NE,45,6.2,6.2,77,0.00,,---,5.07,VWS V14.01,2013-03-24 15:33:00,
2013-03-24 11:38:00,32.5,26.1,29.94,NE,45,5.1,5.1,77,0.00,,---,5.07,VWS V14.01,2013-03-24 15:38:00,
2013-03-24 11:43:00,32.5,25.8,29.94,NE,45,6.7,7.3,76,0.00,,---,5.07,VWS V14.01,2013-03-24 15:43:00,
2013-03-24 11:48:00,32.5,25.8,29.94,NE,45,7.8,7.8,76,0.00,,---,5.07,VWS V14.01,2013-03-24 15:48:00,
2013-03-24 11:53:00,32.5,25.8,29.94,NNE,22,9.1,9.1,76,0.00,,---,5.07,VWS V14.01,2013-03-24 15:53:00,
2013-03-24 11:58:00,32.7,26.0,29.93,ENE,68,1.3,5.3,76,0.00,,---,5.07,VWS V14.01,2013-03-24 15:58:00,
2013-03-24 12:03:00,32.7,26.0,29.93,ENE,68,5.8,7.3,76,0.00,,---,5.07,VWS V14.01,2013-03-24 16:03:00,
2013-03-24 12:08:00,32.7,26.0,29.93,ENE,68,1.1,1.1,76,0.00,,---,5.07,VWS V14.01,2013-03-24 16:08:00,
2013-03-24 12:13:00,32.9,26.2,29.93,NNE,22,2.9,3.8,76,0.00,,---,5.07,VWS V14.01,2013-03-24 16:13:00,
2013-03-24 12:18:00,32.9,26.2,29.92,East,90,6.9,6.9,76,0.00,,---,5.07,VWS V14.01,2013-03-24 16:18:00,
2013-03-24 12:23:00,32.9,26.2,29.92,ESE,112,6.0,6.0,76,0.00,,---,5.07,VWS V14.01,2013-03-24 16:23:00,
2013-03-24 12:28:00,33.0,26.3,29.92,ENE,68,2.0,2.0,76,0.00,,---,5.07,VWS V14.01,2013-03-24 16:28:00,
2013-03-24 12:33:00,33.2,26.5,29.92,ENE,68,2.0,5.1,76,0.00,,---,5.07,VWS V14.01,2013-03-24 16:33:00,
2013-03-24 12:38:00,33.2,26.5,29.92,ESE,112,6.9,6.9,76,0.00,,---,5.07,VWS V14.01,2013-03-24 16:38:00,
2013-03-24 12:43:00,33.4,26.7,29.92,SE,135,0.0,0.0,76,0.00,,---,5.07,VWS V14.01,2013-03-24 16:43:00,
2013-03-24 12:48:00,33.4,26.7,29.91,ENE,68,3.8,4.0,76,0.00,,---,5.07,VWS V14.01,2013-03-24 16:48:00,
2013-03-24 12:53:00,33.6,26.9,29.90,ENE,68,3.3,3.3,76,0.00,,---,5.07,VWS V14.01,2013-03-24 16:53:00,
2013-03-24 12:58:00,33.8,27.0,29.91,East,90,3.5,5.8,76,0.00,,---,5.07,VWS V14.01,2013-03-24 16:58:00,
2013-03-24 13:03:00,33.9,27.1,29.90,ENE,68,8.9,8.9,76,0.00,,---,5.07,VWS V14.01,2013-03-24 17:03:00,
2013-03-24 13:08:00,34.1,27.3,29.90,SSE,158,2.9,2.9,76,0.00,,---,5.07,VWS V14.01,2013-03-24 17:08:00,
2013-03-24 13:13:00,34.3,27.5,29.89,ENE,68,1.5,3.3,76,0.00,,---,5.07,VWS V14.01,2013-03-24 17:13:00,
2013-03-24 13:18:00,34.3,27.5,29.89,ENE,68,7.8,7.8,76,0.00,,---,5.07,VWS V14.01,2013-03-24 17:18:00,
2013-03-24 13:23:00,34.3,27.2,29.89,ENE,68,8.2,8.2,75,0.00,,---,5.07,VWS V14.01,2013-03-24 17:23:00,
2013-03-24 13:28:00,34.5,27.4,29.89,NE,45,6.4,6.4,75,0.00,,---,5.07,VWS V14.01,2013-03-24 17:28:00,
2013-03-24 13:33:00,34.8,27.7,29.88,NE,45,7.8,7.8,75,0.00,,---,5.07,VWS V14.01,2013-03-24 17:33:00,
2013-03-24 13:38:00,35.2,28.1,29.87,NE,45,9.6,9.6,75,0.00,,---,5.07,VWS V14.01,2013-03-24 17:38:00,
2013-03-24 13:43:00,35.4,28.0,29.87,NNE,22,6.9,6.9,74,0.00,,---,5.07,VWS V14.01,2013-03-24 17:43:00,
2013-03-24 13:48:00,35.4,28.0,29.86,NE,45,7.8,7.8,74,0.00,,---,5.07,VWS V14.01,2013-03-24 17:48:00,
2013-03-24 13:53:00,35.7,27.9,29.86,NNE,22,8.5,8.5,73,0.00,,---,5.07,VWS V14.01,2013-03-24 17:53:00,
2013-03-24 13:58:00,35.7,27.6,29.86,ENE,68,10.9,10.9,72,0.00,,---,5.07,VWS V14.01,2013-03-24 17:58:00,
2013-03-24 14:03:00,36.1,28.0,29.86,ENE,68,3.3,3.3,72,0.00,,---,5.07,VWS V14.01,2013-03-24 18:03:00,
2013-03-24 14:08:00,36.5,27.7,29.86,NE,45,8.2,8.2,70,0.00,,---,5.07,VWS V14.01,2013-03-24 18:08:00,
2013-03-24 14:14:00,37.0,27.4,29.85,ENE,68,6.4,6.4,68,0.00,,---,5.07,VWS V14.01,2013-03-24 18:14:00,
2013-03-24 14:19:00,37.5,27.2,29.85,ENE,68,11.1,11.1,66,0.00,,---,5.07,VWS V14.01,2013-03-24 18:19:00,
2013-03-24 14:24:00,38.3,27.6,29.84,NE,45,8.9,8.9,65,0.00,,---,5.07,VWS V14.01,2013-03-24 18:24:00,
2013-03-24 14:30:00,39.0,27.5,29.84,ENE,68,6.4,14.0,63,0.00,,---,5.07,VWS V14.01,2013-03-24 18:30:00,
2013-03-24 14:36:00,39.0,27.5,29.84,NE,45,4.6,4.6,63,0.00,,---,5.07,VWS V14.01,2013-03-24 18:36:00,
2013-03-24 14:41:00,39.7,27.8,29.84,East,90,9.8,9.8,62,0.00,,---,5.07,VWS V14.01,2013-03-24 18:41:00,
2013-03-24 14:46:00,39.3,27.0,29.83,NNE,22,10.9,10.9,61,0.00,,---,5.07,VWS V14.01,2013-03-24 18:46:00,
2013-03-24 14:51:00,39.0,27.1,29.83,NNE,22,9.8,9.8,62,0.00,,---,5.07,VWS V14.01,2013-03-24 18:51:00,
2013-03-24 14:56:00,38.4,26.9,29.83,NE,45,7.8,11.4,63,0.00,,---,5.07,VWS V14.01,2013-03-24 18:56:00,
2013-03-24 15:01:00,37.9,26.5,29.83,ENE,68,8.7,8.7,63,0.00,,---,5.07,VWS V14.01,2013-03-24 19:01:00,
2013-03-24 15:06:00,37.7,26.3,29.82,North,0,8.0,8.0,63,0.00,,---,5.07,VWS V14.01,2013-03-24 19:06:00,
2013-03-24 15:11:00,37.5,26.1,29.82,NE,45,8.5,8.5,63,0.00,,---,5.07,VWS V14.01,2013-03-24 19:11:00,
2013-03-24 15:16:00,36.6,24.4,29.82,NE,45,12.9,12.9,61,0.00,,---,5.07,VWS V14.01,2013-03-24 19:16:00,
2013-03-24 15:21:00,36.8,25.0,29.82,NE,45,6.4,6.4,62,0.00,,---,5.07,VWS V14.01,2013-03-24 19:21:00,
2013-03-24 15:26:00,37.2,24.6,29.82,NNE,22,13.4,13.4,60,0.00,,---,5.07,VWS V14.01,2013-03-24 19:26:00,
2013-03-24 15:31:00,37.4,24.8,29.82,NE,45,3.1,7.8,60,0.00,,---,5.07,VWS V14.01,2013-03-24 19:31:00,
2013-03-24 15:36:00,37.4,24.4,29.82,ENE,68,12.3,12.3,59,0.00,,---,5.07,VWS V14.01,2013-03-24 19:36:00,
2013-03-24 15:41:00,37.5,24.9,29.82,ENE,68,5.1,5.1,60,0.00,,---,5.07,VWS V14.01,2013-03-24 19:41:00,
2013-03-24 15:46:00,37.7,24.7,29.82,ESE,112,4.9,8.5,59,0.00,,---,5.07,VWS V14.01,2013-03-24 19:46:00,
2013-03-24 15:51:00,37.7,24.7,29.81,NE,45,7.6,7.6,59,0.00,,---,5.07,VWS V14.01,2013-03-24 19:51:00,
2013-03-24 15:56:00,37.5,24.5,29.81,SE,135,7.6,7.6,59,0.00,,---,5.07,VWS V14.01,2013-03-24 19:56:00,
2013-03-24 16:01:00,37.2,24.2,29.80,ENE,68,7.1,10.9,59,0.00,,---,5.07,VWS V14.01,2013-03-24 20:01:00,
2013-03-24 16:07:00,37.2,24.2,29.81,NNE,22,13.4,13.4,59,0.00,,---,5.07,VWS V14.01,2013-03-24 20:07:00,
2013-03-24 16:12:00,37.0,23.6,29.80,ENE,68,12.3,16.3,58,0.00,,---,5.07,VWS V14.01,2013-03-24 20:12:00,
2013-03-24 16:17:00,36.8,23.8,29.80,NE,45,17.2,17.2,59,0.00,,---,5.07,VWS V14.01,2013-03-24 20:17:00,
2013-03-24 16:22:00,36.5,23.1,29.80,NE,45,8.0,10.5,58,0.00,,---,5.07,VWS V14.01,2013-03-24 20:22:00,
2013-03-24 16:27:00,36.1,22.8,29.79,NE,45,10.0,10.0,58,0.00,,---,5.07,VWS V14.01,2013-03-24 20:27:00,
2013-03-24 16:32:00,36.1,22.8,29.79,ENE,68,14.0,14.0,58,0.00,,---,5.07,VWS V14.01,2013-03-24 20:32:00,
2013-03-24 16:37:00,35.9,22.6,29.79,ESE,112,10.5,10.5,58,0.00,,---,5.07,VWS V14.01,2013-03-24 20:37:00,
2013-03-24 16:43:00,35.7,22.4,29.79,ENE,68,11.1,11.1,58,0.00,,---,5.07,VWS V14.01,2013-03-24 20:43:00,
2013-03-24 16:48:00,35.9,22.6,29.79,ENE,68,8.2,8.2,58,0.00,,---,5.07,VWS V14.01,2013-03-24 20:48:00,
2013-03-24 16:53:00,36.3,23.4,29.79,NNE,22,8.7,8.7,59,0.00,,---,5.07,VWS V14.01,2013-03-24 20:53:00,
2013-03-24 16:58:00,36.3,23.4,29.79,ENE,68,7.1,7.1,59,0.00,,---,5.07,VWS V14.01,2013-03-24 20:58:00,
2013-03-24 17:04:00,36.6,23.2,29.79,NE,45,8.0,8.0,58,0.00,,---,5.07,VWS V14.01,2013-03-24 21:04:00,
2013-03-24 17:10:00,37.0,24.0,29.79,ENE,68,4.4,4.4,59,0.00,,---,5.07,VWS V14.01,2013-03-24 21:10:00,
2013-03-24 17:17:00,36.5,23.1,29.78,NE,45,6.0,6.0,58,0.00,,---,5.07,VWS V14.01,2013-03-24 21:17:00,
2013-03-24 17:22:00,35.7,22.4,29.78,NE,45,9.6,9.6,58,0.00,,---,5.07,VWS V14.01,2013-03-24 21:22:00,
2013-03-24 17:27:00,35.4,22.5,29.78,ENE,68,8.9,8.9,59,0.00,,---,5.07,VWS V14.01,2013-03-24 21:27:00,
2013-03-24 17:33:00,35.0,22.1,29.78,NE,45,11.4,11.4,59,0.00,,---,5.07,VWS V14.01,2013-03-24 21:33:00,
2013-03-24 17:38:00,34.8,22.0,29.78,NNE,22,4.0,4.0,59,0.00,,---,5.07,VWS V14.01,2013-03-24 21:38:00,
2013-03-24 17:43:00,34.5,22.1,29.78,NE,45,4.4,4.4,60,0.00,,---,5.07,VWS V14.01,2013-03-24 21:43:00,
2013-03-24 17:48:00,34.3,21.9,29.77,East,90,12.0,12.0,60,0.00,,---,5.07,VWS V14.01,2013-03-24 21:48:00,
2013-03-24 17:53:00,34.3,22.3,29.77,East,90,7.8,7.8,61,0.00,,---,5.07,VWS V14.01,2013-03-24 21:53:00,
2013-03-24 17:58:00,33.9,21.9,29.77,North,0,7.8,7.8,61,0.00,,---,5.07,VWS V14.01,2013-03-24 21:58:00,
2013-03-24 18:03:00,33.8,22.2,29.77,NNE,22,16.7,16.7,62,0.00,,---,5.07,VWS V14.01,2013-03-24 22:03:00,
2013-03-24 18:08:00,33.6,22.0,29.76,ENE,68,8.5,8.5,62,0.00,,---,5.07,VWS V14.01,2013-03-24 22:08:00,
2013-03-24 18:13:00,33.6,22.0,29.76,NNE,22,14.7,14.7,62,0.00,,---,5.07,VWS V14.01,2013-03-24 22:13:00,
2013-03-24 18:18:00,33.2,21.6,29.76,ENE,68,9.6,12.3,62,0.00,,---,5.07,VWS V14.01,2013-03-24 22:18:00,
2013-03-24 18:23:00,33.0,21.4,29.76,NE,45,7.8,7.8,62,0.00,,---,5.07,VWS V14.01,2013-03-24 22:23:00,
2013-03-24 18:29:00,32.9,21.3,29.76,NE,45,15.6,15.6,62,0.00,,---,5.07,VWS V14.01,2013-03-24 22:29:00,
2013-03-24 18:34:00,32.7,21.5,29.76,NE,45,6.2,6.2,63,0.00,,---,5.07,VWS V14.01,2013-03-24 22:34:00,
2013-03-24 18:39:00,32.7,21.5,29.76,NNE,22,13.1,13.1,63,0.00,,---,5.07,VWS V14.01,2013-03-24 22:39:00,
2013-03-24 18:44:00,32.5,21.3,29.76,NNE,22,13.4,13.4,63,0.00,,---,5.07,VWS V14.01,2013-03-24 22:44:00,
2013-03-24 18:49:00,32.5,21.3,29.76,NNE,22,7.1,7.1,63,0.00,,---,5.07,VWS V14.01,2013-03-24 22:49:00,
2013-03-24 18:54:00,32.1,21.3,29.76,NE,45,19.2,19.2,64,0.00,,---,5.07,VWS V14.01,2013-03-24 22:54:00,
2013-03-24 18:59:00,32.1,21.3,29.76,North,0,8.9,11.1,64,0.00,,---,5.07,VWS V14.01,2013-03-24 22:59:00,
2013-03-24 19:04:00,32.1,21.7,29.76,NNE,22,7.8,7.8,65,0.00,,---,5.07,VWS V14.01,2013-03-24 23:04:00,
2013-03-24 19:09:00,31.8,21.4,29.76,East,90,6.4,8.2,65,0.00,,---,5.07,VWS V14.01,2013-03-24 23:09:00,
2013-03-24 19:14:00,31.8,21.4,29.76,NE,45,2.9,9.1,65,0.00,,---,5.07,VWS V14.01,2013-03-24 23:14:00,
2013-03-24 19:19:00,31.8,21.4,29.75,NE,45,7.6,7.6,65,0.00,,---,5.07,VWS V14.01,2013-03-24 23:19:00,
2013-03-24 19:24:00,31.8,21.8,29.75,ENE,68,7.8,9.1,66,0.00,,---,5.07,VWS V14.01,2013-03-24 23:24:00,
2013-03-24 19:29:00,31.8,21.8,29.75,NE,45,7.1,10.2,66,0.00,,---,5.07,VWS V14.01,2013-03-24 23:29:00,
2013-03-24 19:34:00,31.8,22.1,29.75,East,90,8.9,8.9,67,0.00,,---,5.07,VWS V14.01,2013-03-24 23:34:00,
2013-03-24 19:39:00,31.6,21.9,29.75,NE,45,10.9,14.0,67,0.00,,---,5.07,VWS V14.01,2013-03-24 23:39:00,
2013-03-24 19:44:00,31.6,21.9,29.74,NNE,22,13.8,13.8,67,0.00,,---,5.07,VWS V14.01,2013-03-24 23:44:00,
2013-03-24 19:49:00,31.6,21.9,29.74,NE,45,6.9,6.9,67,0.00,,---,5.07,VWS V14.01,2013-03-24 23:49:00,
2013-03-24 19:54:00,31.2,21.5,29.74,ENE,68,8.5,10.0,67,0.00,,---,5.07,VWS V14.01,2013-03-24 23:54:00,
2013-03-24 19:59:00,31.2,21.9,29.74,NE,45,9.6,9.6,68,0.00,,---,5.07,VWS V14.01,2013-03-24 23:59:00,
2013-03-24 20:04:00,31.1,21.8,29.74,NNE,22,8.2,8.2,68,0.00,,---,5.07,VWS V14.01,2013-03-25 00:04:00,
2013-03-24 20:09:00,31.1,21.8,29.74,ENE,68,11.4,15.6,68,0.00,,---,5.07,VWS V14.01,2013-03-25 00:09:00,
2013-03-24 20:14:00,31.1,21.8,29.74,NE,45,8.0,10.2,68,0.00,,---,5.07,VWS V14.01,2013-03-25 00:14:00,
2013-03-24 20:19:00,30.9,21.6,29.74,NE,45,15.2,15.2,68,0.00,,---,5.07,VWS V14.01,2013-03-25 00:19:00,
2013-03-24 20:24:00,30.9,21.6,29.74,NNE,22,9.1,12.3,68,0.00,,---,5.07,VWS V14.01,2013-03-25 00:24:00,
2013-03-24 20:30:00,30.9,21.9,29.74,ENE,68,6.9,6.9,69,0.00,,---,5.07,VWS V14.01,2013-03-25 00:30:00,
2013-03-24 20:35:00,30.9,21.9,29.74,NE,45,10.2,10.2,69,0.00,,---,5.07,VWS V14.01,2013-03-25 00:35:00,
2013-03-24 20:40:00,30.9,21.9,29.74,NE,45,5.3,5.3,69,0.00,,---,5.07,VWS V14.01,2013-03-25 00:40:00,
2013-03-24 20:46:00,30.9,21.9,29.74,NE,45,4.4,9.1,69,0.00,,---,5.07,VWS V14.01,2013-03-25 00:46:00,
2013-03-24 20:51:00,30.9,21.9,29.73,NE,45,10.0,10.0,69,0.00,,---,5.07,VWS V14.01,2013-03-25 00:51:00,
2013-03-24 20:56:00,30.7,21.8,29.73,ENE,68,8.5,8.5,69,0.00,,---,5.07,VWS V14.01,2013-03-25 00:56:00,
2013-03-24 21:02:00,30.7,21.8,29.74,ENE,68,7.8,7.8,69,0.00,,---,5.07,VWS V14.01,2013-03-25 01:02:00,
2013-03-24 21:07:00,30.7,22.1,29.73,NE,45,10.9,10.9,70,0.00,,---,5.07,VWS V14.01,2013-03-25 01:07:00,
2013-03-24 21:12:00,30.7,22.1,29.73,NNE,22,10.5,10.5,70,0.00,,---,5.07,VWS V14.01,2013-03-25 01:12:00,
2013-03-24 21:17:00,30.7,22.1,29.73,ENE,68,8.5,8.5,70,0.00,,---,5.07,VWS V14.01,2013-03-25 01:17:00,
2013-03-24 21:22:00,30.7,22.4,29.73,NE,45,7.6,8.0,71,0.00,,---,5.07,VWS V14.01,2013-03-25 01:22:00,
2013-03-24 21:27:00,30.5,22.2,29.73,NE,45,8.0,8.0,71,0.00,,---,5.07,VWS V14.01,2013-03-25 01:27:00,
2013-03-24 21:32:00,30.7,22.4,29.73,NE,45,3.1,3.1,71,0.00,,---,5.07,VWS V14.01,2013-03-25 01:32:00,
2013-03-24 21:37:00,30.7,22.4,29.73,ENE,68,2.9,7.8,71,0.00,,---,5.07,VWS V14.01,2013-03-25 01:37:00,
2013-03-24 21:42:00,30.7,22.4,29.74,ENE,68,7.8,7.8,71,0.00,,---,5.07,VWS V14.01,2013-03-25 01:42:00,
2013-03-24 21:47:00,30.7,22.4,29.74,ENE,68,5.5,5.5,71,0.00,,---,5.07,VWS V14.01,2013-03-25 01:47:00,
2013-03-24 21:53:00,30.7,22.4,29.74,NE,45,4.6,4.6,71,0.00,,---,5.07,VWS V14.01,2013-03-25 01:53:00,
2013-03-24 21:58:00,30.7,22.4,29.73,NE,45,7.1,8.7,71,0.00,,---,5.07,VWS V14.01,2013-03-25 01:58:00,
2013-03-24 22:03:00,30.7,22.8,29.73,NE,45,19.2,19.2,72,0.00,,---,5.07,VWS V14.01,2013-03-25 02:03:00,
2013-03-24 22:08:00,30.7,22.8,29.73,NE,45,12.7,12.7,72,0.00,,---,5.07,VWS V14.01,2013-03-25 02:08:00,
2013-03-24 22:13:00,30.7,22.8,29.73,ENE,68,6.4,6.4,72,0.00,,---,5.07,VWS V14.01,2013-03-25 02:13:00,
2013-03-24 22:18:00,30.7,22.8,29.73,ENE,68,7.8,7.8,72,0.00,,---,5.07,VWS V14.01,2013-03-25 02:18:00,
2013-03-24 22:23:00,30.7,22.4,29.73,ENE,68,8.2,8.2,71,0.00,,---,5.07,VWS V14.01,2013-03-25 02:23:00,
2013-03-24 22:28:00,30.7,22.4,29.73,ENE,68,8.0,8.0,71,0.00,,---,5.07,VWS V14.01,2013-03-25 02:28:00,
2013-03-24 22:33:00,30.7,22.4,29.73,East,90,7.1,7.1,71,0.00,,---,5.07,VWS V14.01,2013-03-25 02:33:00,
2013-03-24 22:38:00,30.7,22.4,29.73,NNE,22,1.7,1.7,71,0.00,,---,5.07,VWS V14.01,2013-03-25 02:38:00,
2013-03-24 22:43:00,30.7,22.4,29.72,NE,45,7.1,8.0,71,0.00,,---,5.07,VWS V14.01,2013-03-25 02:43:00,
2013-03-24 22:48:00,30.7,22.4,29.72,NE,45,7.8,7.8,71,0.00,,---,5.07,VWS V14.01,2013-03-25 02:48:00,
2013-03-24 22:53:00,30.7,22.8,29.72,NE,45,2.9,2.9,72,0.00,,---,5.07,VWS V14.01,2013-03-25 02:53:00,
2013-03-24 22:58:00,30.7,22.8,29.72,NE,45,6.2,7.6,72,0.00,,---,5.07,VWS V14.01,2013-03-25 02:58:00,
2013-03-24 23:03:00,30.7,22.8,29.72,ENE,68,6.9,14.0,72,0.00,,---,5.07,VWS V14.01,2013-03-25 03:03:00,
2013-03-24 23:08:00,30.7,23.1,29.72,NE,45,8.9,8.9,73,0.00,,---,5.07,VWS V14.01,2013-03-25 03:08:00,
2013-03-24 23:13:00,30.7,23.1,29.72,ENE,68,9.8,9.8,73,0.00,,---,5.07,VWS V14.01,2013-03-25 03:13:00,
2013-03-24 23:18:00,30.7,23.1,29.71,NE,45,7.1,9.8,73,0.00,,---,5.07,VWS V14.01,2013-03-25 03:18:00,
2013-03-24 23:23:00,30.7,23.1,29.71,NE,45,6.7,6.7,73,0.00,,---,5.07,VWS V14.01,2013-03-25 03:23:00,
2013-03-24 23:29:00,30.7,23.1,29.71,ENE,68,2.0,2.0,73,0.00,,---,5.07,VWS V14.01,2013-03-25 03:29:00,
2013-03-24 23:34:00,30.7,23.1,29.71,ENE,68,5.3,5.3,73,0.00,,---,5.07,VWS V14.01,2013-03-25 03:34:00,
2013-03-24 23:39:00,30.9,23.3,29.71,NE,45,6.7,6.7,73,0.00,,---,5.07,VWS V14.01,2013-03-25 03:39:00,
2013-03-24 23:44:00,30.7,23.1,29.70,NE,45,8.2,8.2,73,0.00,,---,5.07,VWS V14.01,2013-03-25 03:44:00,
2013-03-24 23:49:00,30.9,23.3,29.70,NE,45,7.3,7.3,73,0.00,,---,5.07,VWS V14.01,2013-03-25 03:49:00,
2013-03-24 23:54:00,30.7,23.1,29.71,NE,45,4.4,9.1,73,0.00,,---,5.07,VWS V14.01,2013-03-25 03:54:00,
2013-03-24 23:59:00,30.7,23.1,29.71,NE,45,7.1,7.1,73,0.00,,---,5.07,VWS V14.01,2013-03-25 03:59:00,